Time;durP1;ratioP1;P1;durP2;ratioP2;P2;SDS_P1;SDS_P2;PMS_P1;PMS_P2;Temp;Humidity;BMP_temperature;BMP_pressure;BME280_temperature;BME280_humidity;BME280_pressure;Samples;Min_cycle;Max_cycle;Signal;HPM_P1;HPM_P2
2022/12/01 00:02:28;;;;;;;48.67;29.63;;;-9.00;98.70;;;;;;4995715;28;20049;-77
2022/12/01 00:04:53;;;;;;;50.15;27.40;;;-9.00;98.70;;;;;;4993624;28;20026;-77
2022/12/01 00:07:19;;;;;;;51.70;26.70;;;-9.00;98.70;;;;;;4995634;28;20499;-77
2022/12/01 00:10:30;;;;;;;53.47;27.77;;;-8.90;98.80;;;;;;4995851;28;20026;-76
2022/12/01 00:12:31;;;;;;;45.97;25.93;;;-8.90;98.70;;;;;;4982179;28;20042;-77
2022/12/01 00:14:59;;;;;;;53.45;27.08;;;-9.00;98.70;;;;;;4993645;28;20288;-79
2022/12/01 00:17:27;;;;;;;53.83;27.77;;;-9.00;98.60;;;;;;5007533;28;20019;-78
2022/12/01 00:19:54;;;;;;;58.30;28.50;;;-9.00;98.70;;;;;;4996500;28;20085;-78
2022/12/01 00:22:20;;;;;;;60.42;27.95;;;-9.00;98.70;;;;;;4980825;28;20026;-79
2022/12/01 00:24:46;;;;;;;56.95;26.63;;;-9.00;98.70;;;;;;4997085;28;20060;-77
2022/12/01 00:27:12;;;;;;;71.03;31.33;;;-9.00;98.60;;;;;;4995635;28;20032;-78
2022/12/01 00:29:37;;;;;;;54.95;26.25;;;-9.00;98.70;;;;;;4995397;28;20026;-79
2022/12/01 00:32:04;;;;;;;60.60;28.40;;;-9.00;98.70;;;;;;4999215;28;20115;-78
2022/12/01 00:34:29;;;;;;;56.17;27.60;;;-9.00;98.60;;;;;;4998082;28;20407;-78
2022/12/01 00:36:55;;;;;;;57.53;28.20;;;-9.00;98.60;;;;;;4994851;28;20019;-78
2022/12/01 00:39:21;;;;;;;56.35;29.38;;;-9.00;98.60;;;;;;4995122;28;20380;-79
2022/12/01 00:41:47;;;;;;;49.35;25.25;;;-9.00;98.70;;;;;;4994957;28;20018;-79
2022/12/01 00:44:13;;;;;;;58.10;25.00;;;-9.00;98.60;;;;;;4995680;28;20053;-77
2022/12/01 00:46:39;;;;;;;49.22;29.02;;;-9.00;98.60;;;;;;4993325;28;20049;-78
2022/12/01 00:49:05;;;;;;;55.08;30.10;;;-9.10;98.50;;;;;;4995393;28;20095;-78
2022/12/01 00:51:31;;;;;;;46.00;26.25;;;-9.10;98.50;;;;;;4994867;28;20026;-77
2022/12/01 00:53:57;;;;;;;50.92;28.42;;;-9.20;98.50;;;;;;4995066;28;20480;-77
2022/12/01 00:56:23;;;;;;;52.33;27.25;;;-9.20;98.50;;;;;;4994173;28;20038;-79
2022/12/01 00:58:49;;;;;;;60.22;29.70;;;-9.20;98.70;;;;;;4994764;28;20021;-77
2022/12/01 01:01:14;;;;;;;55.47;25.95;;;-9.20;98.60;;;;;;4994832;28;20479;-77
2022/12/01 01:03:40;;;;;;;47.20;25.42;;;-9.10;98.60;;;;;;4994787;28;20027;-78
2022/12/01 01:06:09;;;;;;;50.95;26.83;;;-9.20;98.50;;;;;;4994611;28;20395;-78
2022/12/01 01:08:35;;;;;;;62.22;28.08;;;-9.20;98.50;;;;;;4993197;28;20042;-77
2022/12/01 01:11:02;;;;;;;55.90;27.38;;;-9.20;98.50;;;;;;4994696;28;20050;-78
2022/12/01 01:13:28;;;;;;;43.33;21.05;;;-9.20;98.50;;;;;;4986107;28;20074;-79
2022/12/01 01:16:21;;;;;;;55.20;31.50;;;-9.20;98.50;;;;;;4992449;28;20034;-76
2022/12/01 01:18:47;;;;;;;51.20;26.70;;;-9.30;98.50;;;;;;4992369;28;20065;-78
2022/12/01 01:21:15;;;;;;;40.33;20.77;;;-9.30;98.40;;;;;;4994681;28;20499;-78
2022/12/01 01:23:42;;;;;;;50.85;28.75;;;-9.30;98.40;;;;;;4994477;28;20018;-79
2022/12/01 01:26:12;;;;;;;53.22;26.13;;;-9.30;98.40;;;;;;4995086;28;20431;-78
2022/12/01 01:28:40;;;;;;;57.33;27.42;;;-9.40;98.40;;;;;;4988533;28;20023;-78
2022/12/01 01:31:12;;;;;;;51.33;24.48;;;-9.40;98.40;;;;;;4996015;28;20046;-79
2022/12/01 01:33:37;;;;;;;63.85;30.77;;;-9.40;98.50;;;;;;5004440;28;20046;-77
2022/12/01 01:36:04;;;;;;;53.05;25.95;;;-9.40;98.50;;;;;;4999998;28;20038;-78
2022/12/01 01:38:31;;;;;;;49.95;26.83;;;-9.40;98.50;;;;;;4994405;28;20170;-79
2022/12/01 01:40:57;;;;;;;62.40;28.98;;;-9.40;98.50;;;;;;4993953;28;20031;-78
2022/12/01 01:43:57;;;;;;;57.63;29.08;;;-9.40;98.50;;;;;;4994163;28;20487;-78
2022/12/01 01:46:33;;;;;;;48.97;25.90;;;-9.40;98.50;;;;;;4979593;28;20113;-79
2022/12/01 01:49:09;;;;;;;35.45;20.17;;;-9.40;98.50;;;;;;4992723;28;20389;-77
2022/12/01 01:51:48;;;;;;;58.95;27.05;;;-9.40;98.40;;;;;;4993827;28;20364;-78
2022/12/01 01:54:28;;;;;;;59.15;26.88;;;-9.40;98.30;;;;;;4993942;28;20032;-79
2022/12/01 01:56:56;;;;;;;55.08;30.50;;;-9.50;98.30;;;;;;4993778;28;20038;-78
2022/12/01 01:59:28;;;;;;;52.58;26.30;;;-9.40;98.40;;;;;;4989398;28;20034;-79
2022/12/01 02:02:07;;;;;;;54.83;27.20;;;-9.40;98.50;;;;;;4992356;28;20022;-79
2022/12/01 02:04:44;;;;;;;54.13;27.27;;;-9.50;98.40;;;;;;4993750;28;20029;-78
2022/12/01 02:07:12;;;;;;;52.80;25.40;;;-9.50;98.40;;;;;;4980323;28;20088;-78
2022/12/01 02:09:38;;;;;;;56.25;27.05;;;-9.40;98.40;;;;;;4994395;28;20026;-78
2022/12/01 02:12:43;;;;;;;46.25;26.08;;;-9.40;98.40;;;;;;4993555;28;20048;-79
2022/12/01 02:15:08;;;;;;;57.70;26.25;;;-9.50;98.30;;;;;;4979023;28;20104;-77
2022/12/01 02:17:59;;;;;;;55.00;26.10;;;-9.50;98.30;;;;;;4991907;28;20026;-78
2022/12/01 02:20:39;;;;;;;45.47;27.85;;;-9.50;98.30;;;;;;4995547;28;20042;-78
2022/12/01 02:23:34;;;;;;;53.20;25.10;;;-9.50;98.30;;;;;;4992131;28;20406;-78
2022/12/01 02:26:33;;;;;;;52.60;26.45;;;-9.50;98.20;;;;;;4980714;28;20100;-78
2022/12/01 02:29:21;;;;;;;58.35;28.73;;;-9.50;98.30;;;;;;4995083;28;20488;-77
2022/12/01 02:32:04;;;;;;;61.00;28.75;;;-9.50;98.20;;;;;;4988010;28;20026;-79
2022/12/01 02:34:38;;;;;;;52.28;25.90;;;-9.60;98.20;;;;;;4978412;28;20050;-78
2022/12/01 02:37:16;;;;;;;50.25;27.58;;;-9.50;98.40;;;;;;4992762;28;20076;-78
2022/12/01 02:40:15;;;;;;;55.35;23.75;;;-9.50;98.30;;;;;;4992983;28;20404;-79
2022/12/01 02:43:06;;;;;;;59.90;27.60;;;-9.60;98.20;;;;;;4987381;28;20022;-78
2022/12/01 02:45:37;;;;;;;57.13;28.63;;;-9.60;98.30;;;;;;4991656;28;20057;-79
2022/12/01 02:48:10;;;;;;;53.45;27.75;;;-9.50;98.40;;;;;;4992843;28;20053;-78
2022/12/01 02:50:38;;;;;;;67.13;28.08;;;-9.50;98.40;;;;;;4990482;28;20034;-78
2022/12/01 02:53:05;;;;;;;47.72;24.73;;;-9.50;98.30;;;;;;4992602;28;20121;-78
2022/12/01 02:55:31;;;;;;;55.33;26.67;;;-9.50;98.40;;;;;;4991625;28;20459;-77
2022/12/01 02:57:57;;;;;;;51.58;26.27;;;-9.50;98.40;;;;;;4993306;28;20022;-77
2022/12/01 03:00:23;;;;;;;60.47;26.75;;;-9.50;98.30;;;;;;4991366;28;20026;-77
2022/12/01 03:03:23;;;;;;;51.05;29.67;;;-9.50;98.30;;;;;;4992765;28;20092;-77
2022/12/01 03:06:23;;;;;;;46.88;24.38;;;-9.40;98.40;;;;;;4981809;28;20031;-77
2022/12/01 03:08:59;;;;;;;45.58;24.55;;;-9.50;98.30;;;;;;4992550;28;20029;-78
2022/12/01 03:11:36;;;;;;;56.30;25.08;;;-9.50;98.20;;;;;;4992814;28;20112;-79
2022/12/01 03:14:20;;;;;;;;;;;-9.50;98.30;;;;;;4994529;28;20376;-80
2022/12/01 03:16:51;;;;;;;51.60;26.58;;;-9.50;98.20;;;;;;4995061;28;19917;-76
2022/12/01 03:19:26;;;;;;;52.10;28.08;;;-9.50;98.10;;;;;;4994431;28;20054;-77
2022/12/01 03:22:04;;;;;;;60.00;26.00;;;-9.50;98.20;;;;;;4992895;28;20027;-79
2022/12/01 03:24:33;;;;;;;51.60;24.65;;;-9.40;98.20;;;;;;4991860;28;20095;-78
2022/12/01 03:27:02;;;;;;;54.78;26.38;;;-9.50;98.10;;;;;;4992694;28;20030;-79
2022/12/01 03:29:42;;;;;;;57.10;25.80;;;-9.50;98.10;;;;;;4992783;28;20101;-78
2022/12/01 03:32:16;;;;;;;53.45;27.30;;;-9.50;98.10;;;;;;4992578;28;20015;-78
2022/12/01 03:34:42;;;;;;;44.08;24.67;;;-9.50;98.10;;;;;;4994952;28;20030;-79
2022/12/01 03:37:42;;;;;;;58.80;27.17;;;-9.50;98.00;;;;;;4995144;28;20029;-78
2022/12/01 03:40:13;;;;;;;50.70;25.20;;;-9.50;98.10;;;;;;4985190;28;20065;-78
2022/12/01 03:42:45;;;;;;;63.60;28.00;;;-9.50;98.10;;;;;;4991483;28;20392;-78
2022/12/01 03:45:21;;;;;;;55.88;27.90;;;-9.50;98.20;;;;;;4992295;28;20025;-79
2022/12/01 03:47:47;;;;;;;56.08;27.67;;;-9.40;98.20;;;;;;4991120;28;20113;-80
2022/12/01 03:50:15;;;;;;;51.22;27.75;;;-9.40;98.10;;;;;;4992577;28;20065;-78
2022/12/01 03:53:20;;;;;;;43.92;26.83;;;-9.50;98.10;;;;;;4994961;28;20053;-79
2022/12/01 03:55:51;;;;;;;45.15;21.48;;;-9.40;98.20;;;;;;4981776;28;20487;-80
2022/12/01 03:58:26;;;;;;;39.30;19.00;;;-9.40;98.10;;;;;;4983619;28;20026;-79
2022/12/01 04:00:56;;;;;;;49.97;27.70;;;-9.40;98.00;;;;;;4992209;28;20018;-78
2022/12/01 04:03:24;;;;;;;54.85;28.67;;;-9.50;98.00;;;;;;4990829;28;20053;-77
2022/12/01 04:05:50;;;;;;;51.88;25.40;;;-9.50;98.00;;;;;;4990587;28;20384;-77
2022/12/01 04:08:16;;;;;;;61.05;24.73;;;-9.50;98.00;;;;;;4991878;28;20022;-78
2022/12/01 04:10:43;;;;;;;55.30;25.60;;;-9.50;98.10;;;;;;4992208;28;20076;-80
2022/12/01 04:13:15;;;;;;;55.88;28.02;;;-9.40;98.20;;;;;;4992616;28;20034;-78
2022/12/01 04:15:42;;;;;;;42.80;24.77;;;-9.40;98.10;;;;;;4989823;28;20026;-78
2022/12/01 04:18:08;;;;;;;45.85;20.92;;;-9.40;98.10;;;;;;4992247;28;20027;-79
2022/12/01 04:20:33;;;;;;;53.22;22.17;;;-9.40;98.00;;;;;;4991244;28;20030;-78
2022/12/01 04:22:59;;;;;;;45.90;24.63;;;-9.40;98.00;;;;;;4993724;28;20476;-79
2022/12/01 04:25:25;;;;;;;49.88;25.02;;;-9.40;98.00;;;;;;4995483;28;20054;-79
2022/12/01 04:27:51;;;;;;;61.08;25.75;;;-9.40;97.90;;;;;;4995697;28;20018;-77
2022/12/01 04:30:17;;;;;;;53.88;27.33;;;-9.40;97.90;;;;;;4995910;28;20030;-79
2022/12/01 04:32:43;;;;;;;55.75;26.65;;;-9.50;97.90;;;;;;4987320;28;20387;-78
2022/12/01 04:35:11;;;;;;;55.30;27.50;;;-9.50;97.90;;;;;;4995354;28;20034;-78
2022/12/01 04:37:37;;;;;;;43.92;19.70;;;-9.50;97.90;;;;;;4995265;28;20022;-79
2022/12/01 04:40:04;;;;;;;58.20;26.10;;;-9.50;98.00;;;;;;4995220;28;20026;-78
2022/12/01 04:42:30;;;;;;;48.13;30.25;;;-9.50;98.00;;;;;;4996593;28;20041;-81
2022/12/01 04:44:56;;;;;;;49.13;22.98;;;-9.50;98.00;;;;;;4995329;28;20054;-78
2022/12/01 04:47:22;;;;;;;42.53;20.95;;;-9.60;97.90;;;;;;4991878;28;20026;-79
2022/12/01 04:49:48;;;;;;;51.22;26.10;;;-9.60;97.90;;;;;;4994550;28;20022;-78
2022/12/01 04:52:14;;;;;;;45.35;24.45;;;-9.60;98.00;;;;;;4993813;28;20408;-78
2022/12/01 04:54:40;;;;;;;52.63;25.00;;;-9.60;98.00;;;;;;4994913;28;20038;-77
2022/12/01 04:57:06;;;;;;;36.45;19.42;;;-9.60;98.10;;;;;;4995244;28;20049;-79
2022/12/01 04:59:32;;;;;;;45.35;23.48;;;-9.60;98.00;;;;;;4995407;28;20392;-78
2022/12/01 05:01:57;;;;;;;48.45;24.05;;;-9.60;98.00;;;;;;4996111;28;20149;-79
2022/12/01 05:04:23;;;;;;;59.47;23.30;;;-9.60;98.00;;;;;;4995783;28;20129;-79
2022/12/01 05:06:49;;;;;;;45.40;24.65;;;-9.60;98.00;;;;;;4994915;28;20025;-79
2022/12/01 05:09:15;;;;;;;52.53;23.58;;;-9.60;98.00;;;;;;4993322;28;20030;-80
2022/12/01 05:11:41;;;;;;;50.92;26.70;;;-9.60;98.00;;;;;;4994572;28;20026;-78
2022/12/01 05:14:07;;;;;;;63.88;27.63;;;-9.50;98.10;;;;;;4994582;28;20018;-78
2022/12/01 05:16:33;;;;;;;61.08;28.45;;;-9.50;98.20;;;;;;4987693;28;20089;-78
2022/12/01 05:21:49;;;;;;;43.60;22.30;;;-9.40;98.20;;;;;;4993934;28;20033;-79
2022/12/01 05:24:16;;;;;;;54.80;27.25;;;-9.40;98.10;;;;;;4996383;28;20027;-79
2022/12/01 05:26:42;;;;;;;41.80;21.30;;;-9.40;98.00;;;;;;4989703;28;20038;-79
2022/12/01 05:29:09;;;;;;;50.58;24.95;;;-9.30;98.00;;;;;;4993988;28;20026;-79
2022/12/01 05:31:35;;;;;;;47.75;22.42;;;-9.30;98.00;;;;;;4994375;28;20030;-80
2022/12/01 05:34:01;;;;;;;64.85;25.05;;;-9.30;97.90;;;;;;4993313;28;20029;-80
2022/12/01 05:36:27;;;;;;;52.05;25.42;;;-9.30;97.80;;;;;;4993238;28;20037;-79
2022/12/01 05:38:53;;;;;;;46.72;23.58;;;-9.30;97.90;;;;;;4995998;28;20023;-81
2022/12/01 05:41:19;;;;;;;49.17;26.13;;;-9.30;97.80;;;;;;4995242;28;20022;-78
2022/12/01 05:43:45;;;;;;;47.67;25.00;;;-9.30;97.80;;;;;;4992866;28;20018;-78
2022/12/01 05:46:11;;;;;;;41.30;21.50;;;-9.20;97.80;;;;;;4991495;28;20388;-79
2022/12/01 05:48:37;;;;;;;48.47;24.98;;;-9.20;97.80;;;;;;4992484;28;20019;-78
2022/12/01 05:51:11;;;;;;;52.10;24.77;;;-9.20;97.80;;;;;;4994510;28;20401;-78
2022/12/01 05:53:37;;;;;;;47.55;24.48;;;-9.10;97.80;;;;;;4981155;28;20018;-80
2022/12/01 05:56:04;;;;;;;41.80;22.70;;;-9.00;97.60;;;;;;4993595;28;20034;-78
2022/12/01 05:58:30;;;;;;;36.38;20.85;;;-9.00;97.60;;;;;;4995652;28;20093;-77
2022/12/01 06:00:56;;;;;;;50.53;23.25;;;-9.00;97.50;;;;;;4993400;28;20064;-78
2022/12/01 06:03:22;;;;;;;51.22;23.52;;;-8.90;97.50;;;;;;4993519;28;20488;-79
2022/12/01 06:05:48;;;;;;;55.20;24.60;;;-8.90;97.50;;;;;;4993606;28;20030;-80
2022/12/01 06:08:14;;;;;;;49.83;23.55;;;-8.90;97.40;;;;;;4993439;28;20251;-79
2022/12/01 06:10:40;;;;;;;51.75;24.65;;;-8.80;97.30;;;;;;4993402;28;20053;-77
2022/12/01 06:13:06;;;;;;;49.13;24.67;;;-8.80;97.30;;;;;;4993981;28;20065;-79
2022/12/01 06:15:31;;;;;;;60.53;29.52;;;-8.80;97.20;;;;;;4994077;28;20034;-78
2022/12/01 06:18:01;;;;;;;44.60;24.15;;;-8.80;97.20;;;;;;4992826;28;20037;-79
2022/12/01 06:20:27;;;;;;;46.10;22.83;;;-8.80;97.10;;;;;;4993472;28;20383;-79
2022/12/01 06:22:53;;;;;;;50.13;22.38;;;-8.70;97.10;;;;;;4991949;28;20109;-80
2022/12/01 06:25:19;;;;;;;49.47;25.25;;;-8.70;97.00;;;;;;4992900;28;20053;-79
2022/12/01 06:27:44;;;;;;;51.60;23.13;;;-8.70;96.90;;;;;;4993261;28;20030;-79
2022/12/01 06:30:10;;;;;;;48.10;24.17;;;-8.70;96.90;;;;;;4993784;28;20542;-78
2022/12/01 06:32:37;;;;;;;51.40;25.10;;;-8.70;96.80;;;;;;4993453;28;20018;-78
2022/12/01 06:35:06;;;;;;;50.15;22.70;;;-8.70;96.80;;;;;;4986498;28;20042;-80
2022/12/01 06:37:32;;;;;;;44.28;21.63;;;-8.70;96.70;;;;;;4977690;28;20447;-79
2022/12/01 06:39:58;;;;;;;52.45;25.35;;;-8.70;96.60;;;;;;4993042;28;20121;-79
2022/12/01 06:42:24;;;;;;;58.42;24.52;;;-8.70;96.60;;;;;;4994137;28;20534;-79
2022/12/01 06:44:49;;;;;;;46.63;24.05;;;-8.70;96.60;;;;;;4994655;28;20437;-80
2022/12/01 06:47:15;;;;;;;49.53;25.70;;;-8.70;96.60;;;;;;4993959;28;20153;-82
2022/12/01 06:49:41;;;;;;;56.67;25.10;;;-8.60;96.60;;;;;;4993129;28;20036;-80
2022/12/01 06:52:08;;;;;;;53.55;24.88;;;-8.50;96.60;;;;;;4997594;28;20377;-80
2022/12/01 06:54:36;;;;;;;46.67;24.10;;;-8.50;96.60;;;;;;4999654;28;20119;-81
2022/12/01 06:57:02;;;;;;;52.55;25.90;;;-8.40;96.60;;;;;;4995280;28;20038;-78
2022/12/01 06:59:30;;;;;;;47.67;23.95;;;-8.40;96.50;;;;;;4993692;28;20387;-79
2022/12/01 07:01:56;;;;;;;60.85;26.30;;;-8.30;96.50;;;;;;4993145;28;20501;-80
2022/12/01 07:04:22;;;;;;;48.40;26.38;;;-8.20;96.50;;;;;;4993477;28;20034;-79
2022/12/01 07:06:48;;;;;;;57.38;26.88;;;-8.10;96.60;;;;;;4991473;28;20084;-79
2022/12/01 07:09:14;;;;;;;44.08;24.50;;;-8.00;96.70;;;;;;4992242;28;20042;-78
2022/12/01 07:11:40;;;;;;;51.15;26.02;;;-7.90;96.40;;;;;;4993438;28;20488;-79
2022/12/01 07:14:10;;;;;;;54.47;26.35;;;-7.90;96.30;;;;;;4993229;28;20060;-80
2022/12/01 07:16:36;;;;;;;48.08;25.67;;;-7.90;96.20;;;;;;4995376;28;20137;-80
2022/12/01 07:19:02;;;;;;;55.63;25.42;;;-7.90;96.10;;;;;;4981358;28;20029;-79
2022/12/01 07:21:28;;;;;;;41.17;22.55;;;-7.90;96.00;;;;;;4993983;28;20054;-80
2022/12/01 07:23:55;;;;;;;67.32;27.83;;;-7.80;96.00;;;;;;4993025;28;20048;-79
2022/12/01 07:26:21;;;;;;;41.55;23.35;;;-7.80;96.10;;;;;;4994709;28;20046;-81
2022/12/01 07:28:47;;;;;;;56.70;28.27;;;-7.70;96.10;;;;;;4994102;28;20150;-80
2022/12/01 07:31:17;;;;;;;48.63;25.35;;;-7.60;96.20;;;;;;4991864;28;20023;-80
2022/12/01 07:33:43;;;;;;;53.88;25.52;;;-7.50;95.90;;;;;;4992756;28;20026;-80
2022/12/01 07:36:10;;;;;;;52.28;24.73;;;-7.50;95.80;;;;;;4978618;28;20546;-79
2022/12/01 07:38:37;;;;;;;53.20;25.17;;;-7.50;95.60;;;;;;4987874;28;20034;-80
2022/12/01 07:41:04;;;;;;;54.65;25.45;;;-7.50;95.50;;;;;;4992660;28;20030;-80
2022/12/01 07:43:31;;;;;;;58.00;24.83;;;-7.60;95.40;;;;;;4996982;28;20034;-81
2022/12/01 07:46:03;;;;;;;53.08;24.27;;;-7.50;95.40;;;;;;4993578;28;20110;-80
2022/12/01 07:48:29;;;;;;;58.20;25.27;;;-7.40;95.50;;;;;;4979423;28;20633;-80
2022/12/01 07:50:55;;;;;;;53.40;27.05;;;-7.40;95.50;;;;;;4992792;28;20460;-79
2022/12/01 07:53:22;;;;;;;58.50;29.73;;;-7.30;95.50;;;;;;4992531;28;20022;-80
2022/12/01 07:55:51;;;;;;;64.85;31.70;;;-7.10;95.60;;;;;;4992438;28;20030;-80
2022/12/01 07:58:17;;;;;;;70.72;34.20;;;-6.90;95.60;;;;;;4993811;28;20029;-81
2022/12/01 08:00:43;;;;;;;64.38;34.67;;;-6.70;95.50;;;;;;4991977;28;20497;-81
2022/12/01 08:03:09;;;;;;;67.15;35.50;;;-6.50;95.30;;;;;;4996328;28;20037;-79
2022/12/01 08:05:35;;;;;;;72.22;35.55;;;-6.30;95.30;;;;;;4996234;28;20026;-81
2022/12/01 08:08:01;;;;;;;80.93;36.53;;;-6.20;95.20;;;;;;4998523;28;20381;-79
2022/12/01 08:10:27;;;;;;;72.70;37.35;;;-6.00;95.20;;;;;;4996798;28;20045;-79
2022/12/01 08:12:53;;;;;;;75.68;37.88;;;-5.70;95.10;;;;;;4995687;28;20495;-80
2022/12/01 08:15:19;;;;;;;75.00;34.58;;;-5.50;94.60;;;;;;4996364;28;20041;-79
2022/12/01 08:17:44;;;;;;;75.85;35.53;;;-5.30;94.40;;;;;;4996295;28;20022;-80
2022/12/01 08:20:11;;;;;;;82.93;35.42;;;-5.00;94.20;;;;;;4998093;28;20154;-81
2022/12/01 08:22:37;;;;;;;64.63;35.20;;;-4.90;93.50;;;;;;4995754;28;20025;-80
2022/12/01 08:25:03;;;;;;;72.97;36.53;;;-4.80;93.30;;;;;;4991336;28;20050;-81
2022/12/01 08:27:29;;;;;;;69.15;35.83;;;-4.60;93.40;;;;;;4993994;28;20018;-79
2022/12/01 08:29:55;;;;;;;61.80;35.03;;;-4.50;92.70;;;;;;4995396;28;20034;-80
2022/12/01 08:32:21;;;;;;;60.63;34.13;;;-4.60;92.10;;;;;;4995154;28;20030;-79
2022/12/01 08:34:47;;;;;;;74.72;34.20;;;-4.80;91.90;;;;;;4995098;28;20030;-79
2022/12/01 08:37:13;;;;;;;63.88;35.55;;;-5.20;91.50;;;;;;4995386;28;20548;-80
2022/12/01 08:39:39;;;;;;;58.70;34.65;;;-5.40;91.70;;;;;;4993574;28;20023;-81
2022/12/01 08:42:05;;;;;;;72.53;37.15;;;-5.50;91.80;;;;;;4995803;28;20421;-79
2022/12/01 08:44:31;;;;;;;66.88;35.67;;;-5.50;92.10;;;;;;4996467;28;20518;-83
2022/12/01 08:46:57;;;;;;;65.73;34.63;;;-5.40;92.30;;;;;;5000329;28;20037;-80
2022/12/01 08:49:23;;;;;;;63.72;33.38;;;-5.30;92.20;;;;;;4996002;28;20026;-81
2022/12/01 08:51:49;;;;;;;65.65;35.28;;;-5.20;92.10;;;;;;4996558;28;20022;-81
2022/12/01 08:54:15;;;;;;;65.43;34.22;;;-5.10;92.20;;;;;;4996408;28;20022;-81
2022/12/01 08:56:43;;;;;;;60.03;34.92;;;-4.90;92.30;;;;;;4977444;28;20168;-81
2022/12/01 08:59:13;;;;;;;72.95;38.15;;;-4.70;92.10;;;;;;4994237;28;20502;-81
2022/12/01 09:01:51;;;;;;;74.40;35.10;;;-4.60;91.50;;;;;;4995615;28;20045;-80
2022/12/01 09:04:23;;;;;;;73.75;35.75;;;-4.80;90.80;;;;;;4995523;28;20503;-82
2022/12/01 09:06:51;;;;;;;73.10;37.05;;;-5.00;91.00;;;;;;4995489;28;20030;-81
2022/12/01 09:09:22;;;;;;;76.68;36.83;;;-5.10;91.20;;;;;;4995193;28;20030;-80
2022/12/01 09:11:51;;;;;;;75.60;40.92;;;-5.20;91.30;;;;;;4993629;28;20027;-80
2022/12/01 09:14:18;;;;;;;65.53;34.78;;;-5.20;91.50;;;;;;4992823;28;20054;-82
2022/12/01 09:16:45;;;;;;;71.38;36.67;;;-5.30;91.50;;;;;;4989973;28;20032;-80
2022/12/01 09:19:12;;;;;;;;;;;-5.30;91.60;;;;;;4995524;28;20089;-80
2022/12/01 09:21:38;;;;;;;47.97;27.83;;;-5.30;91.70;;;;;;4994699;28;19906;-80
2022/12/01 09:24:06;;;;;;;68.75;33.65;;;-5.40;91.60;;;;;;4994608;28;20117;-81
2022/12/01 09:26:32;;;;;;;64.55;32.72;;;-5.50;91.60;;;;;;4977959;28;20369;-81
2022/12/01 09:29:03;;;;;;;76.15;34.42;;;-5.50;91.70;;;;;;4997043;28;20051;-80
2022/12/01 09:31:29;;;;;;;71.78;33.60;;;-5.60;91.80;;;;;;4994782;28;20391;-80
2022/12/01 09:33:57;;;;;;;62.80;36.85;;;-5.60;91.90;;;;;;4994509;28;20034;-80
2022/12/01 09:36:23;;;;;;;74.95;38.13;;;-5.60;91.90;;;;;;4993461;28;20037;-81
2022/12/01 09:38:49;;;;;;;74.95;36.92;;;-5.50;92.00;;;;;;4995033;28;20050;-81
2022/12/01 09:41:20;;;;;;;82.70;39.95;;;-5.50;91.90;;;;;;4994817;28;20057;-82
2022/12/01 09:43:58;;;;;;;76.43;39.33;;;-5.50;91.90;;;;;;4999102;28;20077;-80
2022/12/01 09:46:32;;;;;;;69.25;38.05;;;-5.40;91.90;;;;;;4999014;28;20022;-82
2022/12/01 09:49:00;;;;;;;73.93;36.83;;;-5.40;91.90;;;;;;4992614;28;20060;-80
2022/12/01 09:51:28;;;;;;;75.78;39.28;;;-5.40;91.80;;;;;;4992407;28;20026;-83
2022/12/01 09:53:57;;;;;;;67.72;37.30;;;-5.40;91.90;;;;;;4977077;28;20037;-81
2022/12/01 09:56:38;;;;;;;86.00;42.72;;;-5.40;91.90;;;;;;4995297;28;20030;-81
2022/12/01 09:59:07;;;;;;;77.07;38.22;;;-5.40;91.90;;;;;;4977236;28;20065;-79
2022/12/01 10:01:41;;;;;;;91.50;43.95;;;-5.30;91.90;;;;;;4993047;28;20026;-81
2022/12/01 10:04:14;;;;;;;79.45;39.03;;;-5.40;91.90;;;;;;4993234;28;20480;-81
2022/12/01 10:07:17;;;;;;;78.95;39.83;;;-5.30;92.00;;;;;;4994383;28;20073;-83
2022/12/01 10:10:06;;;;;;;64.38;35.83;;;-5.20;92.10;;;;;;4971134;28;20046;-80
2022/12/01 10:12:34;;;;;;;61.25;35.53;;;-5.20;92.00;;;;;;4995187;28;20026;-81
2022/12/01 10:15:31;;;;;;;68.80;34.72;;;-5.20;91.90;;;;;;4995825;28;20042;-82
2022/12/01 10:18:15;;;;;;;;;;;-5.00;92.00;;;;;;4995045;28;20057;-81
2022/12/01 10:21:12;;;;;;;73.15;38.33;;;-5.00;91.70;;;;;;4997163;28;19906;-79
2022/12/01 10:24:03;;;;;;;72.32;37.95;;;-5.10;91.50;;;;;;4992489;28;20034;-80
2022/12/01 10:26:47;;;;;;;61.80;35.53;;;-5.00;91.60;;;;;;4994340;28;20374;-80
2022/12/01 10:29:25;;;;;;;68.82;34.92;;;-4.90;91.60;;;;;;4994414;28;20024;-80
2022/12/01 10:31:57;;;;;;;66.07;35.40;;;-4.90;91.50;;;;;;4995440;28;20033;-80
2022/12/01 10:34:30;;;;;;;68.60;35.67;;;-4.90;91.40;;;;;;4993951;28;20073;-79
2022/12/01 10:36:57;;;;;;;68.95;38.50;;;-5.00;91.50;;;;;;4995843;28;20030;-79
2022/12/01 10:39:35;;;;;;;70.80;34.05;;;-5.00;91.50;;;;;;4996599;28;20026;-80
2022/12/01 10:42:18;;;;;;;67.57;33.67;;;-4.90;91.50;;;;;;4997222;28;20026;-78
2022/12/01 10:44:44;;;;;;;62.25;33.65;;;-4.90;91.50;;;;;;4992939;28;20496;-82
2022/12/01 10:47:33;;;;;;;66.63;38.10;;;-4.90;91.50;;;;;;4994378;28;20046;-80
2022/12/01 10:50:02;;;;;;;59.53;34.10;;;-4.90;91.50;;;;;;4993788;28;20022;-83
2022/12/01 10:52:39;;;;;;;61.28;34.22;;;-4.90;91.40;;;;;;4993734;28;20457;-81
2022/12/01 10:55:36;;;;;;;73.60;39.92;;;-4.90;91.30;;;;;;4975869;28;20045;-83
2022/12/01 10:58:15;;;;;;;66.00;34.63;;;-5.00;91.30;;;;;;4968504;28;20031;-82
2022/12/01 11:00:45;;;;;;;69.68;35.60;;;-5.00;91.30;;;;;;4994667;28;20022;-81
2022/12/01 11:03:20;;;;;;;66.43;35.67;;;-5.10;91.40;;;;;;4997204;28;20026;-83
2022/12/01 11:05:52;;;;;;;63.72;35.00;;;-5.10;91.50;;;;;;4994036;28;20018;-83
2022/12/01 11:08:44;;;;;;;71.57;40.60;;;-5.10;91.50;;;;;;4993300;28;20015;-82
2022/12/01 11:11:32;;;;;;;70.57;35.30;;;-5.00;91.60;;;;;;4995075;28;20026;-82
2022/12/01 11:14:01;;;;;;;68.15;36.53;;;-5.00;91.50;;;;;;4983089;28;20027;-82
2022/12/01 11:16:33;;;;;;;66.72;39.75;;;-4.90;91.50;;;;;;4991979;28;20542;-83
2022/12/01 11:19:21;;;;;;;72.85;41.05;;;-5.00;91.40;;;;;;4993232;28;20034;-81
2022/12/01 11:21:52;;;;;;;64.80;35.85;;;-4.90;91.50;;;;;;4993341;28;20023;-82
2022/12/01 11:24:46;;;;;;;64.85;36.60;;;-4.90;91.30;;;;;;4994819;28;20029;-81
2022/12/01 11:27:29;;;;;;;74.03;34.30;;;-5.00;91.30;;;;;;4978101;28;20036;-82
2022/12/01 11:30:01;;;;;;;72.20;38.40;;;-5.00;91.30;;;;;;4984532;28;20053;-82
2022/12/01 11:32:31;;;;;;;72.65;38.95;;;-5.00;91.30;;;;;;4993678;28;20022;-82
2022/12/01 11:35:02;;;;;;;74.47;37.30;;;-5.00;91.20;;;;;;4979130;28;20125;-80
2022/12/01 11:37:36;;;;;;;77.03;37.33;;;-5.10;91.20;;;;;;4997097;28;20022;-81
2022/12/01 11:40:19;;;;;;;77.35;39.30;;;-5.20;91.30;;;;;;4996876;28;20030;-81
2022/12/01 11:42:51;;;;;;;71.47;36.05;;;-5.20;91.40;;;;;;4998212;28;20137;-82
2022/12/01 11:45:19;;;;;;;73.43;36.92;;;-5.20;91.50;;;;;;5002147;28;20022;-80
2022/12/01 11:48:06;;;;;;;67.45;35.47;;;-5.20;91.50;;;;;;5002403;28;20026;-80
2022/12/01 11:50:36;;;;;;;70.10;38.15;;;-5.30;91.50;;;;;;4994754;28;20036;-82
2022/12/01 11:53:03;;;;;;;74.90;40.03;;;-5.30;91.50;;;;;;4993081;28;20440;-81
2022/12/01 11:55:30;;;;;;;66.95;33.03;;;-5.30;91.60;;;;;;4993541;28;20043;-81
2022/12/01 11:57:59;;;;;;;;;;;-5.30;91.70;;;;;;4986124;28;20046;-81
2022/12/01 12:01:05;;;;;;;58.97;30.85;;;-5.30;91.60;;;;;;4983355;28;20267;-82
2022/12/01 12:03:46;;;;;;;60.00;32.85;;;-5.40;91.60;;;;;;4968775;28;20031;-80
2022/12/01 12:06:24;;;;;;;76.10;35.75;;;-5.40;91.70;;;;;;4996841;28;20026;-77
2022/12/01 12:09:02;;;;;;;63.30;32.90;;;-5.50;91.70;;;;;;4996382;28;20102;-79
2022/12/01 12:11:45;;;;;;;66.72;35.53;;;-5.50;91.80;;;;;;4996162;28;20376;-79
2022/12/01 12:14:20;;;;;;;72.65;33.85;;;-5.50;92.00;;;;;;4981565;28;20431;-79
2022/12/01 12:17:04;;;;;;;72.70;33.38;;;-5.50;92.00;;;;;;4990758;28;20034;-79
2022/12/01 12:20:11;;;;;;;69.25;35.17;;;-5.60;91.90;;;;;;4996244;28;20042;-79
2022/12/01 12:23:02;;;;;;;60.90;31.73;;;-5.70;92.00;;;;;;4994998;28;20427;-78
2022/12/01 12:25:46;;;;;;;76.38;33.63;;;-5.80;92.00;;;;;;4994606;28;20050;-79
2022/12/01 12:28:21;;;;;;;69.47;34.58;;;-5.90;92.00;;;;;;4978773;28;20392;-79
2022/12/01 12:31:25;;;;;;;78.05;36.03;;;-6.00;92.20;;;;;;4995859;28;20035;-79
2022/12/01 12:34:29;;;;;;;66.53;32.45;;;-6.10;92.40;;;;;;4999418;28;20050;-80
2022/12/01 12:36:55;;;;;;;88.88;46.95;;;-6.10;92.50;;;;;;4996963;28;20108;-80
2022/12/01 12:39:33;;;;;;;77.47;37.80;;;-6.10;92.60;;;;;;4996274;28;20101;-81
2022/12/01 12:42:04;;;;;;;72.65;39.63;;;-6.10;92.70;;;;;;4997852;28;20025;-81
2022/12/01 12:44:38;;;;;;;68.00;38.28;;;-6.20;92.80;;;;;;4994776;28;20418;-79
2022/12/01 12:47:12;;;;;;;80.32;38.72;;;-6.20;92.90;;;;;;4996022;28;20027;-79
2022/12/01 12:50:03;;;;;;;67.85;33.67;;;-6.20;93.00;;;;;;4994376;28;20030;-79
2022/12/01 12:52:34;;;;;;;74.07;35.60;;;-6.20;93.00;;;;;;4995199;28;20041;-84
2022/12/01 12:55:24;;;;;;;60.60;32.58;;;-6.30;93.00;;;;;;4996317;28;20220;-82